Other Surface Observations
Issued by NWS Great Falls, MT

Home | Current Version | Previous Version | Text Only | Print | Product List | Glossary On
Versions: 1 2 3 4 5 6 7 8 9 10 11 12 13 14 15 16 17 18 19 20 21 22 23 24 25 26 27 28 29 30 31 32 33 34 35 36 37 38 39 40 41 42 43 44 45 46 47 48 49 50
000
SXUS55 KTFX 301356
OSOTFX
AREA AWOS OBSERVATIONS
NATIONAL WEATHER SERVICE GREAT FALLS MT
0750 AM MDT TUE SEP 30 2014

METAR KPWD 301345Z AUTO 13009KT 9SM 11/11 A2969 RMK PLENTYWOOD
METAR KPO1 301345Z AUTO 27004KT 12/12 RMK POPLAR
METAR K1S3 301345Z AUTO 00000KT 1/2SM 11/11 A2964 RMK FORSYTH
METAR K6S0 301345Z AUTO 10SM 11/05 A2977 RMK BIG TIMBER
METAR K79S 301345Z AUTO 21004KT 10SM 14/07 A2967 RMK FORT BENTON
METAR KEKS 301345Z AUTO 13007KT 9SM 08/05 A2993 RMK ENNIS
METAR K38S 301345Z AUTO 00000KT 10SM 08/07 A2984 RMK DEER LODGE
METAR K3U3 301345Z AUTO 14003KT 09/04 A2982 RMK ANACONDA
METAR K6S5 301345Z AUTO 17006KT 10SM 11/07 A2983 RMK HAMILTON
METAR KS59 301345Z AUTO 00000KT 10SM 11/09 A2975 RMK LIBBY



USA.gov is the U.S. government's official web portal to all federal, state and local government web resources and services.